ADDS METAR Data INFO
IDs: Format: Raw Decoded Include TAF

Data at: 0111 UTC 21 Oct 2017

PAUT 210055Z AUTO 36018G27KT 5SM DZ BKN021 BKN025 OVC032 03/02 A2918 RMK AO2 T00340015
PAUT 210035Z AUTO 35017G26KT 10SM OVC021 04/01 A2917 RMK AO2 T00410013
PAUT 210015Z AUTO 36021G26KT 10SM BKN018 BKN024 OVC028 04/02 A2916 RMK AO2 T00420016
PAUT 202355Z AUTO 01020G23KT 10SM BKN018 OVC025 04/02 A2915 RMK AO2 60014 T00420022 10045 20033
PAUT 202335Z AUTO 02023G31KT 10SM BKN018 BKN024 OVC060 04/02 A2913 RMK AO2 T00430022
PAUT 202315Z AUTO 02023G32KT 10SM BKN018 OVC025 04/03 A2913 RMK AO2 T00420025
PAUT 202255Z AUTO 02018G23KT 10SM BKN016 OVC024 04/03 A2913 RMK AO2 P0001 T00420025
PAUT 202235Z AUTO 01015G24KT 10SM BKN015 OVC020 04/03 A2912 RMK AO2 P0001 T00400025
PAUT 202215Z AUTO 02012G23KT 10SM DZ BKN015 BKN026 OVC033 04/02 A2912 RMK AO2 T00350022
PAUT 202155Z AUTO 02021G29KT 5SM DZ BKN013 BKN023 OVC033 04/02 A2911 RMK AO2 P0001 T00350022
PAUT 202135Z AUTO 01020G25KT 7SM -DZ SCT013 BKN018 OVC034 04/03 A2910 RMK AO2 P0001 T00400025
PAUT 202115Z AUTO 03019G22KT 7SM -DZ BKN016 OVC024 04/03 A2909 RMK AO2 T00400025
PAUT 202055Z AUTO 03015G21KT 5SM RA OVC016 04/02 A2909 RMK AO2 P0003 60011 T00370022
PAUT 202035Z AUTO 03014G21KT 7SM RA OVC016 04/02 A2908 RMK AO2 P0001 T00380023
PAUT 202015Z AUTO 5SM -RA BKN016 OVC022 04/03 A2907 RMK AO2 T00400025
PAUT 201955Z AUTO 5SM -RA OVC013 04/03 A2906 RMK AO2 P0007 T00390026
PAUT 201935Z AUTO 05018KT 4SM -RA OVC010 04/03 A2906 RMK AO2 P0006 T00380029
PAUT 201915Z AUTO 04018KT 3SM RA OVC008 04/03 A2906 RMK AO2 P0002 T00400031
PAUT 201855Z AUTO 06019G26KT 10SM -DZ OVC008 04/03 A2905 RMK AO2 T00410031
PAUT 201835Z AUTO 06016KT 10SM DZ OVC010 05/03 A2904 RMK AO2 T00450033
PAUT 201815Z AUTO 07025G29KT 10SM OVC010 04/03 A2904 RMK AO2 T00430034
PAUT 201755Z AUTO 07022G28KT 10SM OVC008 04/04 A2903 RMK AO2 P0001 60010 T00420035 10046 20037
PAUT 201735Z AUTO 07020G28KT 10SM OVC008 04/03 A2903 RMK AO2 P0001 T00410034
PAUT 201715Z AUTO 08024G32KT 7SM -RA OVC008 04/04 A2903 RMK AO2 P0001 T00440037
PAUT 201655Z AUTO 07021G34KT 5SM RA BKN010 OVC015 05/04 A2903 RMK AO2 T00460038
PAUT 201635Z AUTO 09019G28KT 7SM -RA BKN008 OVC013 05/04 A2903 RMK AO2 T00460040
PAUT 201615Z AUTO 08020G25KT 10SM OVC008 05/04 A2903 RMK AO2 T00460040
PAUT 201555Z AUTO 08021G24KT 5SM -RA SCT008 OVC014 05/04 A2903 RMK AO2 P0002 T00450039
PAUT 201535Z AUTO 08017G23KT 7SM RA SCT008 SCT012 OVC016 05/04 A2904 RMK AO2 T00450038
PAUT 201515Z AUTO 09019KT 10SM -RA SCT008 BKN013 OVC036 04/04 A2904 RMK AO2 T00420035
PAUT 201455Z AUTO 08021G25KT 10SM BKN010 BKN015 OVC027 04/03 A2904 RMK AO2 60006 T00410032
PAUT 201435Z AUTO 09020G23KT 10SM BKN011 OVC014 04/04 A2905 RMK AO2 T00420035
PAUT 201415Z AUTO 09019G27KT 7SM OVC009 04/04 A2906 RMK AO2 T00400035
PAUT 201355Z AUTO 08019KT 5SM -RA OVC009 04/03 A2907 RMK AO2 P0002 T00380030
PAUT 201335Z AUTO 09021G27KT 7SM -RA OVC009 04/03 A2908 RMK AO2 P0001 T00390031
PAUT 201315Z AUTO 10022G34KT 7SM -RA OVC009 04/03 A2909 RMK AO2 P0001 T00370030
PAUT 201255Z AUTO 09019G32KT 7SM RA OVC011 04/03 A2910 RMK AO2 P0004 T00380030
PAUT 201235Z AUTO 09023G32KT 5SM -RA BKN009 OVC014 04/03 A2911 RMK AO2 P0003 T00370030
PAUT 201215Z AUTO 09023G33KT 5SM -RA BKN009 OVC014 04/03 A2912 RMK AO2 P0002 T00370030
PAUT 201155Z AUTO 10023G33KT 5SM -RA BKN009 OVC014 04/03 A2913 RMK AO2 P0003 60017 70030 T00370030 10038 20027
PAUT 201135Z AUTO 10022G33KT 7SM -RA BKN009 OVC016 04/03 A2915 RMK AO2 P0002 T00370029
PAUT 201115Z AUTO 10021G32KT 5SM -RA BKN011 BKN016 OVC027 04/03 A2916 RMK AO2 P0001 T00370027
PAUT 201055Z AUTO 10021G28KT 7SM -RA BKN011 BKN018 OVC037 04/03 A2917 RMK AO2 P0005 T00350025
PAUT 201035Z AUTO 10021G28KT 7SM -RA BKN011 OVC018 04/03 A2919 RMK AO2 P0003 T00350025
PAUT 201015Z AUTO 10020G27KT 10SM -RA SCT009 OVC014 04/03 A2920 RMK AO2 P0001 T00360027
PAUT 200955Z AUTO 09022G32KT 7SM -RA OVC009 04/03 A2921 RMK AO2 P0003 T00350026
PAUT 200935Z AUTO 10021G30KT 10SM -RA OVC011 04/03 A2922 RMK AO2 P0001 T00350026
PAUT 200915Z AUTO 09019G30KT 10SM RA BKN011 OVC018 03/02 A2924 RMK AO2 T00340024
PAUT 200855Z AUTO 10021G27KT 10SM -RA OVC013 04/03 A2925 RMK AO2 P0002 60006 T00350025 400560011
PAUT 200835Z AUTO 10021G28KT 10SM -RA OVC010 03/02 A2926 RMK AO2 P0001 T00320023
PAUT 200815Z AUTO 09019G25KT 7SM -RA OVC012 03/02 A2927 RMK AO2 P0001 T00300020
PAUT 200755Z AUTO 09019G23KT 10SM RA BKN012 OVC019 03/02 A2928 RMK AO2 P0002 T00310020
PAUT 200735Z AUTO 10021G26KT 10SM -DZ BKN012 OVC019 03/02 A2929 RMK AO2 P0001 T00320020
PAUT 200715Z AUTO 10018G25KT 10SM -RA BKN012 OVC019 03/02 A2930 RMK AO2 P0001 T00320021
PAUT 200655Z AUTO 10017G24KT 10SM -RA BKN012 OVC018 03/02 A2931 RMK AO2 P0002 T00300020
PAUT 200635Z AUTO 10015G20KT 10SM RA BKN012 OVC020 03/02 A2933 RMK AO2 P0001 T00300018
PAUT 200615Z AUTO 10015G22KT 10SM RA SCT010 BKN015 OVC023 03/02 A2934 RMK AO2 P0001 T00280017
PAUT 200555Z AUTO 10015KT 10SM DZ BKN010 OVC020 03/02 A2935 RMK AO2 P0006 60012 T00270017 10056 20027
PAUT 200535Z AUTO 12016G19KT 10SM -RA BKN012 OVC020 03/02 A2936 RMK AO2 P0005 T00300020
PAUT 200515Z AUTO 12014KT 10SM -RA BKN010 BKN015 OVC020 03/02 A2937 RMK AO2 P0002 T00280020
PAUT 200455Z AUTO 12015G19KT 10SM -DZ BKN012 OVC019 03/02 A2938 RMK AO2 P0004 T00290018
PAUT 200435Z AUTO 12013KT 10SM -DZ BKN012 OVC020 03/02 A2939 RMK AO2 P0002 T00300020
PAUT 200415Z AUTO 12011G16KT 10SM DZ BKN014 OVC020 03/02 A2941 RMK AO2 P0001 T00300020
PAUT 200355Z AUTO 13014G20KT 10SM -DZ BKN014 BKN022 OVC030 03/02 A2942 RMK AO2 P0002 T00310018
PAUT 200335Z AUTO 14012KT 10SM -DZ BKN019 BKN024 OVC036 03/01 A2943 RMK AO2 T00320012
PAUT 200315Z AUTO 12012KT 10SM -DZ SCT017 BKN025 OVC065 04/02 A2945 RMK AO2 T00390017
PAUT 200255Z AUTO 09010G18KT 10SM SCT024 BKN050 OVC065 05/02 A2946 RMK AO2 T00450019
PAUT 200235Z AUTO 11011KT 10SM SCT025 BKN042 OVC050 05/02 A2947 RMK AO2 T00460016
PAUT 200215Z AUTO 11012G21KT 10SM SCT023 BKN050 OVC080 05/02 A2948 RMK AO2 T00500015
PAUT 200155Z AUTO 10010G17KT 10SM SCT070 OVC090 05/01 A2950 RMK AO2 T00480011
PAUT 200135Z AUTO 12012G19KT 10SM SCT027 OVC100 05/01 A2951 RMK AO2 T00480011
PAUT 200115Z AUTO 11013G20KT 10SM OVC110 05/01 A2952 RMK AO2 T00540010
PAUT 200055Z AUTO 11012G20KT 10SM OVC110 06/01 A2953 RMK AO2 T00550006
PAUT 200035Z AUTO 11012G17KT 10SM SCT038 SCT044 OVC110 05/00 A2954 RMK AO2 T00530002
PAUT 200015Z AUTO 11012G20KT 10SM OVC040 05/00 A2956 RMK AO2 T00510000
PAUT 192355Z AUTO 11012G20KT 10SM SCT030 BKN040 OVC110 05/00 A2957 RMK AO2 T00510000 10055 20012
PAUT 192335Z AUTO 12011G18KT 10SM BKN110 05/00 A2958 RMK AO2 T00520002
PAUT 192315Z AUTO 11010G16KT 10SM BKN120 05/00 A2959 RMK AO2 T00520000
PAUT 192255Z AUTO 09010G16KT 10SM BKN120 05/01 A2961 RMK AO2 T00520010
PAUT 192235Z AUTO 10009G18KT 10SM CLR 05/01 A2962 RMK AO2 T00510009
PAUT 192215Z AUTO 09009G16KT 10SM SCT023 SCT028 05/01 A2964 RMK AO2 T00490006
PAUT 192155Z AUTO 09008G16KT 10SM SCT023 SCT028 05/01 A2965 RMK AO2 T00520005
PAUT 192135Z AUTO 10009G14KT 10SM SCT023 SCT027 05/01 A2966 RMK AO2 T00510011
PAUT 192115Z AUTO 11008KT 10SM CLR 05/01 A2967 RMK AO2 T00510011
PAUT 192055Z AUTO 08006KT 10SM CLR 05/01 A2969 RMK AO2 T00480012
PAUT 192035Z AUTO 05003KT 10SM CLR 04/01 A2970 RMK AO2 T00430011
PAUT 192015Z AUTO 16004KT 10SM CLR 04/01 A2972 RMK AO2 T00380010
PAUT 191955Z AUTO 14003KT 10SM CLR 04/01 A2972 RMK AO2 T00350008
PAUT 191935Z AUTO 07004KT 10SM CLR 03/01 A2973 RMK AO2 T00300008
PAUT 191915Z AUTO 00000KT 10SM SCT033 03/01 A2974 RMK AO2 T00250006
PAUT 191855Z AUTO 13003KT 10SM BKN028 BKN035 02/00 A2975 RMK AO2 T00190002
PAUT 191835Z AUTO 00000KT 10SM CLR 02/00 A2977 RMK AO2 T00161001
PAUT 191815Z AUTO 13003KT 10SM CLR 02/00 A2977 RMK AO2 T00210000
PAUT 191755Z AUTO 16003KT 10SM CLR 01/00 A2978 RMK AO2 T00131001 10051 20011
PAUT 191735Z AUTO 13003KT 10SM CLR 02/00 A2979 RMK AO2 T00161001
PAUT 191715Z AUTO 00000KT 10SM CLR 02/00 A2981 RMK AO2 T00181004
PAUT 191655Z AUTO 06003KT 10SM CLR 02/00 A2982 RMK AO2 T00211001
PAUT 191635Z AUTO 25004KT 10SM CLR 03/00 A2982 RMK AO2 T00330000
PAUT 191615Z AUTO 23003KT 10SM CLR 03/00 A2984 RMK AO2 T00340000
PAUT 191555Z AUTO 20003KT 10SM SCT030 SCT034 04/00 A2984 RMK AO2 T00350001
PAUT 191535Z AUTO 26004KT 10SM SCT030 04/00 A2985 RMK AO2 T00390000
PAUT 191515Z AUTO 21004KT 10SM SCT030 SCT036 03/01 A2986 RMK AO2 T00310005
PAUT 191455Z AUTO 24004KT 10SM SCT029 SCT037 03/01 A2987 RMK AO2 T00310007
PAUT 191435Z AUTO 24007KT 10SM SCT027 SCT035 03/00 A2988 RMK AO2 T00320004
PAUT 191415Z AUTO 24008KT 10SM BKN027 BKN037 04/01 A2989 RMK AO2 T00350005
PAUT 191355Z AUTO 30011KT 10SM SCT038 SCT044 04/01 A2990 RMK AO2 T00440005
PAUT 191335Z AUTO 32011KT 10SM CLR 05/00 A2991 RMK AO2 T00450004
PAUT 191315Z AUTO 32010KT 10SM SCT030 SCT041 05/00 A2992 RMK AO2 T00450003